Time;durP1;ratioP1;P1;durP2;ratioP2;P2;SDS_P1;SDS_P2;PMS_P1;PMS_P2;Temp;Humidity;BMP_temperature;BMP_pressure;BME280_temperature;BME280_humidity;BME280_pressure;Samples;Min_cycle;Max_cycle;Signal;HPM_P1;HPM_P2
2023/01/23 00:01:34;;;;;;;15.73;10.70;;;;;;;1.39;100.00;103398.56;4700662;30;20412;-65
2023/01/23 00:04:04;;;;;;;21.08;11.18;;;;;;;1.40;100.00;103384.16;4686526;30;20415;-68
2023/01/23 00:06:32;;;;;;;18.90;10.70;;;;;;;1.39;100.00;103387.81;4701794;30;20507;-65
2023/01/23 00:09:00;;;;;;;19.73;11.48;;;;;;;1.37;100.00;103382.59;4717327;30;20120;-65
2023/01/23 00:11:29;;;;;;;17.05;10.20;;;;;;;1.40;100.00;103384.16;4718030;30;20059;-67
2023/01/23 00:13:58;;;;;;;16.17;10.25;;;;;;;1.37;100.00;103376.38;4717828;30;20095;-64
2023/01/23 00:16:28;;;;;;;16.77;10.75;;;;;;;1.33;100.00;103372.28;4717663;30;20491;-65
2023/01/23 00:18:56;;;;;;;15.02;9.98;;;;;;;1.32;100.00;103381.31;4718168;30;20056;-65
2023/01/23 00:21:26;;;;;;;16.17;10.65;;;;;;;1.31;100.00;103379.63;4719186;30;20393;-65
2023/01/23 00:23:57;;;;;;;17.98;10.60;;;;;;;1.36;100.00;103382.75;4718036;30;20084;-65
2023/01/23 00:26:26;;;;;;;16.02;10.73;;;;;;;1.37;100.00;103382.59;4703550;30;20084;-65
2023/01/23 00:28:56;;;;;;;18.63;10.57;;;;;;;1.37;100.00;103379.06;4717147;30;20406;-66
2023/01/23 00:31:26;;;;;;;17.77;10.45;;;;;;;1.38;100.00;103381.59;4718188;30;20068;-64
2023/01/23 00:34:02;;;;;;;19.20;11.02;;;;;;;1.39;100.00;103393.19;4702865;30;20057;-64
2023/01/23 00:36:33;;;;;;;16.58;10.20;;;;;;;1.41;100.00;103385.84;4717708;30;20075;-64
2023/01/23 00:39:01;;;;;;;14.43;10.60;;;;;;;1.45;100.00;103396.16;4684360;30;20057;-65
2023/01/23 00:41:29;;;;;;;17.17;10.18;;;;;;;1.47;100.00;103396.88;4686246;30;20388;-66
2023/01/23 00:43:57;;;;;;;18.83;11.20;;;;;;;1.47;100.00;103396.88;4697019;30;20059;-64
2023/01/23 00:46:25;;;;;;;15.68;10.40;;;;;;;1.44;100.00;103404.34;4717609;30;20531;-66
2023/01/23 00:48:53;;;;;;;15.30;9.98;;;;;;;1.44;100.00;103404.34;4717711;30;20499;-65
2023/01/23 00:51:21;;;;;;;17.25;10.55;;;;;;;1.41;100.00;103399.28;4717929;30;20067;-65
2023/01/23 00:53:49;;;;;;;14.50;9.50;;;;;;;1.35;100.00;103405.19;4718746;30;20505;-64
2023/01/23 00:56:17;;;;;;;14.25;9.60;;;;;;;1.33;100.00;103407.22;4702300;30;20085;-65
2023/01/23 00:58:44;;;;;;;21.35;11.43;;;;;;;1.28;100.00;103403.09;4717213;30;20057;-64
2023/01/23 01:01:13;;;;;;;16.10;9.45;;;;;;;1.28;100.00;103397.72;4717740;30;20491;-65
2023/01/23 01:03:42;;;;;;;15.55;9.98;;;;;;;1.32;100.00;103402.81;4717387;30;20081;-66
2023/01/23 01:06:10;;;;;;;17.23;10.65;;;;;;;1.35;100.00;103397.13;4717250;30;20115;-66
2023/01/23 01:08:38;;;;;;;15.80;9.75;;;;;;;1.38;100.00;103400.41;4702423;30;20507;-66
2023/01/23 01:11:06;;;;;;;16.98;10.13;;;;;;;1.37;100.00;103395.16;4716446;30;20115;-66
2023/01/23 01:13:35;;;;;;;16.90;10.15;;;;;;;1.40;100.00;103400.28;4717704;30;20125;-64
2023/01/23 01:16:02;;;;;;;17.23;10.30;;;;;;;1.41;100.00;103402.78;4718419;30;20084;-66
2023/01/23 01:18:30;;;;;;;17.90;9.90;;;;;;;1.44;100.00;103396.28;4702522;30;20454;-67
2023/01/23 01:20:59;;;;;;;17.58;10.60;;;;;;;1.48;100.00;103405.75;4712558;30;20052;-65
2023/01/23 01:23:27;;;;;;;19.05;10.43;;;;;;;1.46;100.00;103400.53;4699908;30;20496;-66
2023/01/23 01:25:58;;;;;;;19.13;10.43;;;;;;;1.45;100.00;103408.75;4699927;30;20119;-65
2023/01/23 01:28:29;;;;;;;17.52;10.85;;;;;;;1.44;100.00;103407.03;4698841;30;20061;-64
2023/01/23 01:30:57;;;;;;;18.23;10.73;;;;;;;1.43;100.00;103411.56;4712643;30;20061;-65
2023/01/23 01:33:27;;;;;;;16.52;9.55;;;;;;;1.38;100.00;103413.84;4715574;30;20106;-65
2023/01/23 01:35:55;;;;;;;15.88;8.98;;;;;;;1.39;100.00;103414.69;4702363;30;20084;-64
2023/01/23 01:38:24;;;;;;;15.05;9.75;;;;;;;1.40;100.00;103411.84;4716267;30;20049;-65
2023/01/23 01:40:51;;;;;;;19.15;10.55;;;;;;;1.40;100.00;103421.75;4716948;30;20057;-64
2023/01/23 01:43:25;;;;;;;18.38;10.27;;;;;;;1.39;100.00;103431.63;4702419;30;20049;-65
2023/01/23 01:46:08;;;;;;;17.92;11.57;;;;;;;1.36;100.00;103420.34;4713713;30;20085;-65
2023/01/23 01:48:37;;;;;;;16.33;9.95;;;;;;;1.34;100.00;103422.31;4699888;30;20070;-65
2023/01/23 01:51:12;;;;;;;17.05;10.30;;;;;;;1.36;100.00;103421.19;4702733;30;20111;-65
2023/01/23 01:53:40;;;;;;;17.55;9.80;;;;;;;1.39;100.00;103414.69;4719082;30;20144;-64
2023/01/23 01:56:10;;;;;;;17.52;10.60;;;;;;;1.40;100.00;103417.22;4718353;30;20491;-65
2023/01/23 01:58:40;;;;;;;16.50;9.65;;;;;;;1.41;100.00;103418.06;4717192;30;20084;-66
2023/01/23 02:01:08;;;;;;;14.40;9.40;;;;;;;1.40;100.00;103411.84;4717348;30;20053;-68
2023/01/23 02:03:57;;;;;;;16.63;9.60;;;;;;;1.40;100.00;103405.66;4698984;30;20112;-64
2023/01/23 02:06:25;;;;;;;15.98;9.93;;;;;;;1.39;100.00;103407.47;4700186;30;20054;-65
2023/01/23 02:09:17;;;;;;;14.25;9.25;;;;;;;1.37;100.00;103416.66;4667438;30;20053;-65
2023/01/23 02:11:47;;;;;;;15.02;10.27;;;;;;;1.39;100.00;103420.88;4704738;30;20069;-64
2023/01/23 02:14:19;;;;;;;15.93;9.70;;;;;;;1.44;100.00;103412.41;4720581;30;20093;-66
2023/01/23 02:16:51;;;;;;;18.63;10.50;;;;;;;1.49;100.00;103426.25;4705700;30;20136;-65
2023/01/23 02:19:44;;;;;;;18.08;10.55;;;;;;;1.48;100.00;103414.66;4721412;30;20480;-67
2023/01/23 02:22:31;;;;;;;17.15;10.30;;;;;;;1.45;100.00;103414.13;4719715;30;20659;-65
2023/01/23 02:25:25;;;;;;;16.63;10.45;;;;;;;1.44;100.00;103415.09;4691269;30;20423;-65
2023/01/23 02:27:53;;;;;;;18.58;11.18;;;;;;;1.44;100.00;103417.78;4692809;30;20061;-65
2023/01/23 02:30:21;;;;;;;15.30;10.07;;;;;;;1.48;100.00;103409.28;4666415;30;20060;-65
2023/01/23 02:32:51;;;;;;;17.77;10.77;;;;;;;1.54;100.00;103413.25;4706740;30;20053;-66
2023/01/23 02:35:28;;;;;;;17.77;11.13;;;;;;;1.54;100.00;103410.56;4705707;30;20448;-65
2023/01/23 02:38:04;;;;;;;19.90;11.57;;;;;;;1.55;100.00;103419.47;4704466;30;20065;-65
2023/01/23 02:40:37;;;;;;;19.40;12.00;;;;;;;1.52;100.00;103412.56;4717018;30;20049;-65
2023/01/23 02:43:14;;;;;;;20.23;11.25;;;;;;;1.54;100.00;103417.75;4690547;30;20518;-65
2023/01/23 02:45:48;;;;;;;18.02;11.52;;;;;;;1.55;100.00;103419.47;4709133;30;20053;-66
2023/01/23 02:48:16;;;;;;;19.52;11.30;;;;;;;1.54;100.00;103420.44;4711802;30;20053;-65
2023/01/23 02:50:45;;;;;;;19.88;12.18;;;;;;;1.49;100.00;103415.50;4711882;30;20053;-65
2023/01/23 02:53:13;;;;;;;22.90;12.52;;;;;;;1.52;100.00;103415.25;4692875;30;20483;-65
2023/01/23 02:55:42;;;;;;;22.25;12.88;;;;;;;1.55;100.00;103414.94;4719668;30;20125;-65
2023/01/23 03:00:56;;;;;;;;;;;;;;;1.52;100.00;103415.25;4705934;30;20076;-64
2023/01/23 03:03:24;;;;;;;18.30;12.20;;;;;;;1.51;100.00;103412.69;4705295;30;20051;-65
2023/01/23 03:05:54;;;;;;;19.52;11.90;;;;;;;1.48;100.00;103424.56;4719670;30;20080;-64
2023/01/23 03:08:22;;;;;;;18.30;12.23;;;;;;;1.46;100.00;103422.00;4704513;30;20137;-64
2023/01/23 03:10:50;;;;;;;20.98;12.50;;;;;;;1.51;100.00;103418.06;4704996;30;20059;-65
2023/01/23 03:13:18;;;;;;;20.17;12.98;;;;;;;1.52;100.00;103426.00;4719625;30;20061;-64
2023/01/23 03:15:47;;;;;;;18.88;12.13;;;;;;;1.53;100.00;103419.59;4715918;30;20527;-63
2023/01/23 03:18:15;;;;;;;19.73;12.02;;;;;;;1.52;100.00;103426.00;4717854;30;20467;-64
2023/01/23 03:20:42;;;;;;;23.10;13.30;;;;;;;1.53;100.00;103421.47;4720026;30;20111;-66
2023/01/23 03:23:10;;;;;;;16.83;12.20;;;;;;;1.51;100.00;103413.53;4721365;30;20530;-65
2023/01/23 03:25:43;;;;;;;24.80;12.43;;;;;;;1.50;100.00;103422.59;4715870;30;20556;-63
2023/01/23 03:30:12;;;;;;;20.88;12.10;;;;;;;1.49;100.00;103426.25;4688388;30;20053;-63
2023/01/23 03:30:59;;;;;;;19.73;12.07;;;;;;;1.46;100.00;103423.84;4715987;30;20629;-64
2023/01/23 03:33:29;;;;;;;21.95;12.85;;;;;;;1.44;100.00;103429.41;4715878;30;20508;-65
2023/01/23 03:35:56;;;;;;;20.55;12.18;;;;;;;1.43;100.00;103422.31;4689671;30;20053;-69
2023/01/23 03:38:24;;;;;;;23.50;13.02;;;;;;;1.42;100.00;103420.63;4717748;30;20045;-64
2023/01/23 03:43:38;;;;;;;22.55;13.23;;;;;;;1.44;100.00;103417.78;4718934;30;20519;-64
2023/01/23 03:46:06;;;;;;;20.58;13.25;;;;;;;1.43;100.00;103422.31;4717287;30;20064;-67
2023/01/23 03:48:35;;;;;;;20.52;12.93;;;;;;;1.47;100.00;103423.72;4718405;30;20415;-67
2023/01/23 03:51:03;;;;;;;20.00;13.25;;;;;;;1.47;100.00;103429.09;4703842;30;20053;-68
2023/01/23 03:53:32;;;;;;;23.73;13.18;;;;;;;1.43;100.00;103434.91;4703785;30;20094;-66
2023/01/23 03:56:00;;;;;;;21.88;14.27;;;;;;;1.41;100.00;103437.72;4718626;30;20063;-64
2023/01/23 03:58:29;;;;;;;20.25;13.23;;;;;;;1.44;100.00;103433.91;4686531;30;20146;-67
2023/01/23 04:00:57;;;;;;;20.02;13.48;;;;;;;1.45;100.00;103425.69;4718112;30;20056;-65
2023/01/23 04:03:28;;;;;;;18.85;12.98;;;;;;;1.48;100.00;103421.88;4718792;30;20517;-66
2023/01/23 04:05:57;;;;;;;23.95;13.65;;;;;;;1.50;100.00;103427.97;4719532;30;20503;-65
2023/01/23 04:08:28;;;;;;;21.60;13.77;;;;;;;1.52;100.00;103430.53;4689411;30;20080;-65
2023/01/23 04:11:07;;;;;;;22.15;14.05;;;;;;;1.53;100.00;103422.28;4718823;30;20045;-65
2023/01/23 04:13:35;;;;;;;20.00;12.70;;;;;;;1.55;100.00;103431.06;4704370;30;20057;-64
2023/01/23 04:16:04;;;;;;;20.42;13.63;;;;;;;1.55;100.00;103430.22;4718442;30;20084;-65
2023/01/23 04:18:32;;;;;;;21.73;13.30;;;;;;;1.56;100.00;103432.75;4689505;30;20053;-64
2023/01/23 04:21:01;;;;;;;19.35;12.82;;;;;;;1.58;100.00;103425.41;4714866;30;20094;-65
2023/01/23 04:23:30;;;;;;;20.95;13.38;;;;;;;1.59;100.00;103423.53;4700716;30;20507;-66
2023/01/23 04:25:58;;;;;;;21.58;13.98;;;;;;;1.58;100.00;103420.03;4700861;30;20132;-66
2023/01/23 04:28:26;;;;;;;22.17;14.38;;;;;;;1.52;100.00;103430.53;4700061;30;20423;-66
2023/01/23 04:30:54;;;;;;;18.05;12.80;;;;;;;1.52;100.00;103436.72;4700372;30;20151;-68
2023/01/23 04:33:28;;;;;;;24.30;14.30;;;;;;;1.51;100.00;103443.09;4717936;30;20515;-65
2023/01/23 04:35:59;;;;;;;23.55;13.82;;;;;;;1.54;100.00;103439.25;4718769;30;20069;-66
2023/01/23 04:38:29;;;;;;;18.92;12.52;;;;;;;1.53;100.00;103443.78;4703008;30;20053;-66
2023/01/23 04:41:06;;;;;;;18.27;13.15;;;;;;;1.55;100.00;103438.28;4717637;30;20077;-66
2023/01/23 04:43:37;;;;;;;20.00;13.77;;;;;;;1.59;100.00;103436.97;4702123;30;20123;-66
2023/01/23 04:46:08;;;;;;;21.40;13.40;;;;;;;1.59;100.00;103445.03;4715964;30;20565;-65
2023/01/23 04:48:58;;;;;;;20.80;13.80;;;;;;;1.58;100.00;103436.13;4702126;30;20052;-64
2023/01/23 04:51:28;;;;;;;19.98;13.30;;;;;;;1.58;100.00;103444.19;4716504;30;20056;-64
2023/01/23 04:53:55;;;;;;;19.48;13.40;;;;;;;1.59;100.00;103429.78;4702617;30;20156;-64
2023/01/23 04:56:23;;;;;;;20.80;13.90;;;;;;;1.57;100.00;103442.53;4716216;30;20070;-65
2023/01/23 04:58:52;;;;;;;22.13;13.23;;;;;;;1.57;100.00;103450.59;4716530;30;20081;-65
2023/01/23 05:01:22;;;;;;;21.30;14.35;;;;;;;1.58;100.00;103452.25;4713635;30;20060;-65
2023/01/23 05:03:55;;;;;;;19.40;13.55;;;;;;;1.56;100.00;103445.34;4701344;30;20061;-64
2023/01/23 05:06:23;;;;;;;20.48;14.43;;;;;;;1.56;100.00;103443.50;4700571;30;20054;-67
2023/01/23 05:08:54;;;;;;;23.02;13.75;;;;;;;1.55;100.00;103441.81;4715964;30;20045;-65
2023/01/23 05:11:27;;;;;;;19.23;13.43;;;;;;;1.59;100.00;103453.97;4701934;30;20522;-65
2023/01/23 05:13:56;;;;;;;21.38;14.18;;;;;;;1.60;100.00;103461.03;4716426;30;20561;-66
2023/01/23 05:16:24;;;;;;;20.05;13.45;;;;;;;1.58;100.00;103454.94;4716176;30;20503;-65
2023/01/23 05:19:22;;;;;;;19.30;13.57;;;;;;;1.60;100.00;103454.81;4709349;30;20061;-65
2023/01/23 05:21:50;;;;;;;20.92;13.85;;;;;;;1.61;100.00;103451.13;4717823;30;20061;-67
2023/01/23 05:24:20;;;;;;;20.63;13.68;;;;;;;1.62;100.00;103452.84;4687702;30;20573;-65
2023/01/23 05:26:49;;;;;;;17.45;13.70;;;;;;;1.60;100.00;103449.44;4701858;30;20130;-65
2023/01/23 05:29:18;;;;;;;17.77;13.85;;;;;;;1.61;100.00;103452.00;4686204;30;20049;-66
2023/01/23 05:32:06;;;;;;;18.20;12.18;;;;;;;1.61;100.00;103457.38;4697899;30;20576;-65
2023/01/23 05:34:37;;;;;;;21.42;13.05;;;;;;;1.63;100.00;103463.44;4716457;30;20092;-64
2023/01/23 05:37:14;;;;;;;18.33;14.18;;;;;;;1.65;100.00;103464.13;4701773;30;20053;-66
2023/01/23 05:39:46;;;;;;;18.80;13.10;;;;;;;1.61;100.00;103462.75;4711432;30;20104;-66
2023/01/23 05:42:15;;;;;;;18.88;13.10;;;;;;;1.60;100.00;103469.09;4701476;30;20140;-65
2023/01/23 05:44:48;;;;;;;18.75;13.75;;;;;;;1.58;100.00;103465.69;4702802;30;20059;-65
2023/01/23 05:47:46;;;;;;;20.33;14.43;;;;;;;1.56;100.00;103475.75;4697864;30;20056;-65
2023/01/23 05:50:18;;;;;;;18.30;13.50;;;;;;;1.53;100.00;103465.28;4713771;30;20055;-64
2023/01/23 05:52:47;;;;;;;19.05;13.82;;;;;;;1.53;100.00;103470.66;4705454;30;20080;-64
2023/01/23 05:55:15;;;;;;;18.40;13.73;;;;;;;1.53;100.00;103467.97;4721013;30;20060;-65
2023/01/23 05:57:45;;;;;;;22.45;14.00;;;;;;;1.53;100.00;103465.28;4705247;30;20083;-64
2023/01/23 06:00:42;;;;;;;19.48;13.98;;;;;;;1.50;100.00;103470.94;4716273;30;20129;-64
2023/01/23 06:03:34;;;;;;;18.67;13.20;;;;;;;1.52;100.00;103466.28;4703725;30;20054;-64
2023/01/23 06:06:18;;;;;;;19.30;12.68;;;;;;;1.57;100.00;103472.06;4702851;30;20055;-64
2023/01/23 06:08:45;;;;;;;16.75;12.23;;;;;;;1.58;100.00;103473.75;4719178;30;20056;-65
2023/01/23 06:11:13;;;;;;;17.20;13.45;;;;;;;1.61;100.00;103472.63;4716005;30;20141;-64
2023/01/23 06:13:41;;;;;;;17.63;12.77;;;;;;;1.59;100.00;103475.47;4706012;30;20058;-65
2023/01/23 06:16:08;;;;;;;18.52;12.65;;;;;;;1.62;100.00;103475.19;4703779;30;20136;-66
2023/01/23 06:18:38;;;;;;;18.10;12.10;;;;;;;1.65;100.00;103482.09;4702039;30;20053;-64
2023/01/23 06:21:05;;;;;;;17.58;11.65;;;;;;;1.70;100.00;103494.13;4710241;30;20061;-66
2023/01/23 06:23:35;;;;;;;18.50;13.07;;;;;;;1.76;100.00;103491.88;4712354;30;20426;-65
2023/01/23 06:26:03;;;;;;;18.00;12.00;;;;;;;1.79;100.00;103497.78;4725245;30;20057;-64
2023/01/23 06:28:33;;;;;;;16.83;12.52;;;;;;;1.76;100.00;103491.88;4719579;30;20118;-70
2023/01/23 06:31:02;;;;;;;17.88;13.00;;;;;;;1.66;100.00;103492.72;4724929;30;20061;-66
2023/01/23 06:33:38;;;;;;;20.13;13.73;;;;;;;1.61;100.00;103489.63;4696382;30;20084;-66
2023/01/23 06:36:09;;;;;;;17.90;13.85;;;;;;;1.59;100.00;103482.66;4725911;30;20128;-65
2023/01/23 06:38:39;;;;;;;17.30;12.90;;;;;;;1.60;100.00;103487.91;4708997;30;20050;-65
2023/01/23 06:41:10;;;;;;;16.55;12.38;;;;;;;1.63;100.00;103495.69;4718903;30;20053;-66
2023/01/23 06:43:41;;;;;;;18.60;12.38;;;;;;;1.69;100.00;103491.59;4717979;30;20063;-65
2023/01/23 06:46:15;;;;;;;19.58;12.52;;;;;;;1.76;100.00;103498.09;4702136;30;20061;-65
2023/01/23 06:48:42;;;;;;;16.23;11.88;;;;;;;1.73;100.00;103492.13;4704211;30;20057;-64
2023/01/23 06:51:11;;;;;;;18.73;12.40;;;;;;;1.69;100.00;103492.44;4718883;30;20056;-64
2023/01/23 06:53:42;;;;;;;19.67;12.30;;;;;;;1.70;100.00;103499.50;4717663;30;20168;-65
2023/01/23 06:56:11;;;;;;;17.08;12.18;;;;;;;1.70;100.00;103504.88;4718366;30;20499;-65
2023/01/23 06:58:42;;;;;;;15.85;11.27;;;;;;;1.73;100.00;103508.25;4689298;30;20080;-66
2023/01/23 07:01:18;;;;;;;20.15;12.07;;;;;;;1.74;100.00;103504.59;4714830;30;20054;-65
2023/01/23 07:04:04;;;;;;;18.13;12.40;;;;;;;1.75;100.00;103512.50;4702858;30;20069;-64
2023/01/23 07:06:32;;;;;;;17.30;11.85;;;;;;;1.72;100.00;103517.31;4700665;30;20157;-64
2023/01/23 07:09:01;;;;;;;17.13;11.70;;;;;;;1.68;100.00;103516.75;4693338;30;20053;-64
2023/01/23 07:11:29;;;;;;;16.05;11.55;;;;;;;1.73;100.00;103519.84;4717399;30;20069;-65
2023/01/23 07:13:57;;;;;;;17.38;11.75;;;;;;;1.74;100.00;103523.41;4688850;30;20075;-64
2023/01/23 07:16:27;;;;;;;16.98;12.10;;;;;;;1.75;100.00;103522.41;4691151;30;20064;-66
2023/01/23 07:19:00;;;;;;;15.75;11.73;;;;;;;1.76;100.00;103516.06;4062006;30;10000055;-66
2023/01/23 07:21:32;;;;;;;19.77;11.43;;;;;;;1.74;100.00;103523.41;4714075;30;20137;-64
2023/01/23 07:23:59;;;;;;;17.58;11.75;;;;;;;1.75;100.00;103531.31;4714764;30;20067;-66
2023/01/23 07:26:27;;;;;;;16.20;11.20;;;;;;;1.79;100.00;103529.22;4716414;30;20053;-66
2023/01/23 07:28:56;;;;;;;16.55;11.27;;;;;;;1.80;100.00;103530.88;4715432;30;20427;-66
2023/01/23 07:31:24;;;;;;;14.40;11.07;;;;;;;1.81;100.00;103536.13;4715584;30;20168;-66
2023/01/23 07:33:52;;;;;;;17.73;11.98;;;;;;;1.81;100.00;103538.81;4715347;30;20075;-66
2023/01/23 07:36:19;;;;;;;16.67;11.73;;;;;;;1.82;100.00;103540.50;4717027;30;20068;-66
2023/01/23 07:38:47;;;;;;;15.82;11.15;;;;;;;1.82;100.00;103542.34;4716127;30;20056;-66
2023/01/23 07:41:15;;;;;;;15.60;11.35;;;;;;;1.80;100.00;103549.72;4715927;30;20057;-64
2023/01/23 07:43:42;;;;;;;16.80;11.68;;;;;;;1.78;100.00;103544.50;4714628;30;20053;-68
2023/01/23 07:46:10;;;;;;;14.55;10.82;;;;;;;1.79;100.00;103550.72;4700019;30;20471;-67
2023/01/23 07:48:38;;;;;;;16.55;11.07;;;;;;;1.82;100.00;103545.03;4713873;30;20052;-65
2023/01/23 07:51:06;;;;;;;16.15;11.32;;;;;;;1.83;100.00;103558.34;4714668;30;20059;-67
2023/01/23 07:53:34;;;;;;;17.80;11.48;;;;;;;1.83;100.00;103557.50;4712192;30;20060;-65
2023/01/23 07:56:05;;;;;;;16.58;11.80;;;;;;;1.86;100.00;103562.59;4698887;30;20122;-67
2023/01/23 07:58:33;;;;;;;17.05;11.63;;;;;;;1.87;100.00;103566.97;4707714;30;20064;-68
2023/01/23 08:01:08;;;;;;;15.75;10.95;;;;;;;1.90;100.00;103558.59;4711828;30;20049;-66
2023/01/23 08:03:36;;;;;;;16.70;11.43;;;;;;;1.90;100.00;103566.66;4715343;30;20065;-66
2023/01/23 08:06:04;;;;;;;16.73;10.65;;;;;;;1.90;100.00;103566.66;4716874;30;20314;-67
2023/01/23 08:08:32;;;;;;;18.20;11.40;;;;;;;1.87;100.00;103567.81;4699722;30;20061;-66
2023/01/23 08:11:06;;;;;;;14.63;10.55;;;;;;;1.84;100.00;103565.41;4697796;30;20556;-67
2023/01/23 08:13:34;;;;;;;17.38;11.10;;;;;;;1.83;100.00;103568.25;4698993;30;20277;-69
2023/01/23 08:16:02;;;;;;;15.77;11.20;;;;;;;1.83;100.00;103569.09;4712888;30;20068;-66
2023/01/23 08:18:30;;;;;;;16.65;11.65;;;;;;;1.85;100.00;103566.25;4714576;30;20133;-65
2023/01/23 08:21:00;;;;;;;20.63;11.75;;;;;;;1.88;100.00;103572.22;4695111;30;20080;-66
2023/01/23 08:23:31;;;;;;;17.17;11.68;;;;;;;1.88;100.00;103568.69;4711010;30;20097;-66
2023/01/23 08:26:03;;;;;;;18.45;12.93;;;;;;;1.91;100.00;103573.75;4709743;30;20076;-66
2023/01/23 08:28:31;;;;;;;17.45;11.38;;;;;;;1.93;100.00;103587.91;4718258;30;20057;-66
2023/01/23 08:31:04;;;;;;;16.25;11.50;;;;;;;1.92;100.00;103578.13;4699142;30;20466;-67
2023/01/23 08:33:34;;;;;;;18.33;11.65;;;;;;;1.93;100.00;103574.47;4710241;30;20065;-67
2023/01/23 08:36:02;;;;;;;19.88;11.82;;;;;;;1.98;100.00;103582.97;4713693;30;20061;-67
2023/01/23 08:38:30;;;;;;;16.15;11.43;;;;;;;2.01;100.00;103579.97;4712687;30;20063;-66
2023/01/23 08:41:02;;;;;;;17.95;11.90;;;;;;;2.04;100.00;103587.75;4703756;30;20063;-67
2023/01/23 08:43:30;;;;;;;20.05;12.52;;;;;;;2.05;100.00;103578.72;4711760;30;20118;-67
2023/01/23 08:45:58;;;;;;;20.05;13.15;;;;;;;2.06;100.00;103595.69;4713536;30;20064;-67
2023/01/23 08:48:27;;;;;;;20.20;13.52;;;;;;;2.02;100.00;103589.75;4713362;30;20068;-66
2023/01/23 08:51:01;;;;;;;17.45;14.02;;;;;;;2.04;100.00;103593.13;4713429;30;20523;-66
2023/01/23 08:53:30;;;;;;;21.45;13.50;;;;;;;2.07;100.00;103595.56;4713818;30;20064;-66
2023/01/23 08:56:15;;;;;;;19.85;13.80;;;;;;;2.09;100.00;103590.00;4698117;30;20053;-66
2023/01/23 08:58:44;;;;;;;20.75;13.25;;;;;;;2.07;100.00;103592.84;4715672;30;20052;-68
2023/01/23 09:01:17;;;;;;;18.90;13.85;;;;;;;2.13;100.00;103592.28;4714790;30;20122;-64
2023/01/23 09:03:45;;;;;;;21.27;13.85;;;;;;;2.15;100.00;103592.13;4718214;30;20518;-66
2023/01/23 09:06:14;;;;;;;19.80;13.20;;;;;;;2.11;100.00;103594.25;4716764;30;20136;-66
2023/01/23 09:08:42;;;;;;;17.33;11.82;;;;;;;2.12;100.00;103601.34;4702719;30;20131;-65
2023/01/23 09:11:11;;;;;;;18.15;12.90;;;;;;;2.13;100.00;103603.03;4717227;30;20085;-65
2023/01/23 09:13:39;;;;;;;19.70;13.75;;;;;;;2.13;100.00;103594.97;4718432;30;20061;-64
2023/01/23 09:16:07;;;;;;;17.67;12.23;;;;;;;2.21;100.00;103604.16;4703022;30;20414;-65
2023/01/23 09:18:35;;;;;;;19.95;12.40;;;;;;;2.24;100.00;103603.88;4706093;30;20131;-64
2023/01/23 09:21:07;;;;;;;19.88;13.10;;;;;;;2.28;100.00;103594.50;4691908;30;20118;-66
2023/01/23 09:23:35;;;;;;;22.05;12.85;;;;;;;2.29;100.00;103591.69;4706590;30;20065;-65
2023/01/23 09:26:11;;;;;;;17.42;12.73;;;;;;;2.31;100.00;103594.25;4706335;30;20111;-66
2023/01/23 09:28:41;;;;;;;17.20;11.80;;;;;;;2.31;100.00;103586.19;4706260;30;20053;-65
2023/01/23 09:31:11;;;;;;;19.85;12.68;;;;;;;2.32;100.00;103586.00;4706151;30;20053;-65
2023/01/23 09:33:39;;;;;;;20.50;12.18;;;;;;;2.33;100.00;103584.16;4721335;30;20144;-66
2023/01/23 09:36:08;;;;;;;19.65;12.45;;;;;;;2.35;100.00;103582.19;4705865;30;20406;-66
2023/01/23 09:38:36;;;;;;;18.35;11.68;;;;;;;2.37;100.00;103587.44;4691909;30;20045;-65
2023/01/23 09:41:14;;;;;;;17.67;12.20;;;;;;;2.37;100.00;103590.13;4706056;30;20060;-64
2023/01/23 09:43:45;;;;;;;18.02;11.85;;;;;;;2.40;100.00;103592.50;4720781;30;20140;-65
2023/01/23 09:46:42;;;;;;;15.88;11.50;;;;;;;2.41;100.00;103595.06;4720702;30;20064;-65
2023/01/23 09:49:43;;;;;;;18.45;10.82;;;;;;;2.42;100.00;103594.06;4704808;30;20416;-66
2023/01/23 09:52:15;;;;;;;17.17;11.45;;;;;;;2.39;100.00;103612.34;4720827;30;20061;-65
2023/01/23 09:54:49;;;;;;;15.60;10.63;;;;;;;2.40;100.00;103627.50;4720879;30;20445;-65
2023/01/23 09:57:38;;;;;;;16.58;11.35;;;;;;;2.38;100.00;103627.63;4705876;30;20134;-64
2023/01/23 10:00:13;;;;;;;17.55;11.27;;;;;;;2.38;100.00;103627.63;4705266;30;20057;-65
2023/01/23 10:02:44;;;;;;;15.75;10.43;;;;;;;2.38;100.00;103627.63;4705654;30;20084;-65
2023/01/23 10:05:16;;;;;;;17.17;11.02;;;;;;;2.41;100.00;103621.97;4706522;30;20132;-66
2023/01/23 10:08:02;;;;;;;21.08;11.85;;;;;;;2.42;100.00;103618.28;4707143;30;20057;-67
2023/01/23 10:11:03;;;;;;;17.95;10.93;;;;;;;2.43;100.00;103621.81;4709794;30;20108;-65
2023/01/23 10:14:12;;;;;;;18.85;11.23;;;;;;;2.41;100.00;103616.59;4721577;30;20053;-65
2023/01/23 10:16:59;;;;;;;18.70;10.98;;;;;;;2.44;100.00;103616.31;4703560;30;20106;-65
2023/01/23 10:19:41;;;;;;;17.08;11.07;;;;;;;2.47;100.00;103616.00;4730256;30;20049;-65
2023/01/23 10:22:40;;;;;;;18.13;11.55;;;;;;;2.50;100.00;103621.13;4723006;30;20087;-66
2023/01/23 10:25:28;;;;;;;16.85;11.38;;;;;;;2.61;100.00;103624.63;4720282;30;20057;-65
2023/01/23 10:27:59;;;;;;;16.33;10.38;;;;;;;2.59;100.00;103623.91;4720784;30;20144;-65
2023/01/23 10:30:33;;;;;;;14.65;10.35;;;;;;;2.60;100.00;103614.84;4705177;30;20056;-66
2023/01/23 10:33:10;;;;;;;14.32;10.32;;;;;;;2.58;100.00;103622.22;4719698;30;20052;-66
2023/01/23 10:35:46;;;;;;;16.27;10.93;;;;;;;2.58;100.00;103614.16;4691457;30;20053;-66
2023/01/23 10:38:42;;;;;;;16.33;10.40;;;;;;;2.56;100.00;103615.13;4718274;30;20089;-63
2023/01/23 10:41:18;;;;;;;17.92;10.27;;;;;;;2.58;100.00;103616.84;4705042;30;20049;-65
2023/01/23 10:43:51;;;;;;;18.17;11.70;;;;;;;2.62;100.00;103620.91;4719119;30;20106;-65
2023/01/23 10:46:22;;;;;;;15.35;10.85;;;;;;;2.62;100.00;103613.72;4705013;30;20076;-66
2023/01/23 10:48:52;;;;;;;15.10;10.95;;;;;;;2.65;100.00;103620.66;4690290;30;20518;-65
2023/01/23 10:51:24;;;;;;;15.65;10.52;;;;;;;2.69;100.00;103619.34;4718652;30;20472;-65
2023/01/23 10:54:00;;;;;;;17.40;11.32;;;;;;;2.69;100.00;103619.34;4720182;30;20088;-66
2023/01/23 10:56:35;;;;;;;17.88;11.35;;;;;;;2.65;100.00;103618.81;4719910;30;20061;-65
2023/01/23 10:59:04;;;;;;;15.88;10.80;;;;;;;2.66;100.00;103617.78;4704234;30;20060;-65
2023/01/23 11:01:33;;;;;;;17.00;11.07;;;;;;;2.69;100.00;103609.41;4690085;30;20059;-65
2023/01/23 11:04:18;;;;;;;16.08;10.75;;;;;;;2.70;100.00;103610.28;4676191;30;20068;-64
2023/01/23 11:07:22;;;;;;;16.83;11.00;;;;;;;2.74;100.00;103611.66;4703932;30;20568;-65
2023/01/23 11:09:50;;;;;;;18.00;11.65;;;;;;;2.74;100.00;103617.06;4713845;30;20072;-65
2023/01/23 11:12:24;;;;;;;16.80;10.95;;;;;;;2.79;100.00;103612.09;4701406;30;20041;-66
2023/01/23 11:15:25;;;;;;;19.67;12.80;;;;;;;2.76;100.00;103620.47;4717971;30;20045;-67
2023/01/23 11:17:55;;;;;;;17.80;13.13;;;;;;;2.75;100.00;103608.84;4719607;30;20134;-65
2023/01/23 11:20:24;;;;;;;19.77;13.20;;;;;;;2.76;100.00;103617.75;4718176;30;20143;-65
2023/01/23 11:23:07;;;;;;;18.92;13.07;;;;;;;2.76;100.00;103615.91;4718087;30;20049;-64
2023/01/23 11:25:38;;;;;;;20.10;12.45;;;;;;;2.74;100.00;103617.94;4720156;30;20499;-65
2023/01/23 11:28:19;;;;;;;21.10;13.25;;;;;;;2.74;100.00;103612.53;4704167;30;20456;-62
2023/01/23 11:31:03;;;;;;;20.92;12.88;;;;;;;2.77;100.00;103606.00;4719465;30;20473;-62
2023/01/23 11:34:11;;;;;;;17.77;12.20;;;;;;;2.81;100.00;103601.16;4703539;30;20049;-62
2023/01/23 11:36:44;;;;;;;20.58;13.30;;;;;;;2.84;100.00;103603.56;4720018;30;20060;-60
2023/01/23 11:39:17;;;;;;;18.90;12.55;;;;;;;2.82;100.00;103601.03;4717721;30;20053;-61